createdAt,value
2024-04-26T00:01:42.242Z,13.50
2024-04-26T00:04:09.687Z,14.40
2024-04-26T00:06:43.763Z,11.70
2024-04-26T00:09:11.368Z,12.50
2024-04-26T00:11:39.839Z,12.30
2024-04-26T00:14:07.532Z,13.80
2024-04-26T00:16:42.108Z,12.70
2024-04-26T00:19:09.576Z,17.30
2024-04-26T00:21:46.078Z,18.10
2024-04-26T00:24:16.656Z,15.20
2024-04-26T00:26:44.911Z,16.10
2024-04-26T00:29:12.435Z,15.90
2024-04-26T00:31:39.896Z,16.50
2024-04-26T00:34:07.358Z,18.40
2024-04-26T00:36:38.623Z,17.70
2024-04-26T00:39:06.262Z,18.90
2024-04-26T00:41:34.940Z,19.90
2024-04-26T00:44:09.497Z,21.60
2024-04-26T00:46:38.398Z,20.00
2024-04-26T00:49:07.248Z,21.40
2024-04-26T00:51:36.019Z,19.70
2024-04-26T00:54:05.260Z,19.30
2024-04-26T00:56:34.710Z,19.80
2024-04-26T00:59:04.496Z,20.90
2024-04-26T01:01:33.958Z,19.60
2024-04-26T01:04:01.542Z,18.60
2024-04-26T01:06:29.482Z,18.60
2024-04-26T01:08:57.045Z,17.40
2024-04-26T01:11:24.914Z,17.00
2024-04-26T01:13:54.136Z,16.80
2024-04-26T01:16:21.508Z,17.70
2024-04-26T01:18:49.078Z,17.70
2024-04-26T01:21:17.451Z,17.60
2024-04-26T01:23:45.173Z,17.30
2024-04-26T01:26:12.543Z,19.80
2024-04-26T01:28:39.967Z,17.90
2024-04-26T01:31:07.342Z,17.90
2024-04-26T01:33:34.863Z,19.20
2024-04-26T01:36:03.257Z,18.60
2024-04-26T01:38:30.947Z,17.90
2024-04-26T01:40:58.332Z,21.80
2024-04-26T01:43:25.679Z,18.20
2024-04-26T01:45:53.139Z,18.30
2024-04-26T01:48:20.669Z,20.70
2024-04-26T01:50:48.178Z,21.40
2024-04-26T01:53:15.850Z,21.60
2024-04-26T01:55:43.377Z,19.60
2024-04-26T01:58:10.739Z,18.30
2024-04-26T02:00:38.548Z,19.40
2024-04-26T02:03:06.148Z,18.30
2024-04-26T02:05:33.846Z,17.20
2024-04-26T02:08:01.243Z,16.50
2024-04-26T02:10:28.584Z,16.50
2024-04-26T02:12:56.360Z,17.70
2024-04-26T02:15:23.715Z,17.60
2024-04-26T02:17:51.180Z,16.40
2024-04-26T02:20:18.597Z,17.00
2024-04-26T02:22:45.978Z,17.50
2024-04-26T02:25:13.520Z,16.60
2024-04-26T02:27:41.054Z,16.00
2024-04-26T02:30:09.210Z,16.20
2024-04-26T02:32:36.842Z,15.10
2024-04-26T02:35:05.069Z,16.50
2024-04-26T02:37:32.626Z,15.60
2024-04-26T02:40:00.138Z,17.20
2024-04-26T02:42:27.647Z,16.40
2024-04-26T02:44:55.061Z,16.20
2024-04-26T02:47:22.732Z,16.40
2024-04-26T02:49:50.136Z,16.60
2024-04-26T02:52:17.495Z,16.20
2024-04-26T02:54:44.878Z,17.50
2024-04-26T02:57:12.319Z,16.00
2024-04-26T02:59:39.787Z,16.10
2024-04-26T03:02:07.183Z,16.60
2024-04-26T03:04:34.694Z,15.10
2024-04-26T03:07:02.093Z,16.00
2024-04-26T03:09:29.437Z,17.70
2024-04-26T03:11:56.844Z,15.60
2024-04-26T03:14:24.372Z,17.40
2024-04-26T03:16:51.979Z,16.10
2024-04-26T03:19:19.486Z,17.00
2024-04-26T03:21:47.018Z,16.10
2024-04-26T03:24:15.013Z,16.00
2024-04-26T03:26:43.064Z,15.70
2024-04-26T03:29:10.481Z,16.50
2024-04-26T03:31:38.043Z,17.40
2024-04-26T03:34:05.826Z,16.30
2024-04-26T03:36:33.380Z,16.10
2024-04-26T03:39:00.927Z,15.60
2024-04-26T03:41:28.609Z,15.70
2024-04-26T03:43:56.158Z,16.60
2024-04-26T03:46:23.491Z,15.70
2024-04-26T03:48:51.176Z,14.30
2024-04-26T03:51:18.860Z,15.10
2024-04-26T03:53:46.417Z,15.40
2024-04-26T03:56:13.859Z,16.00
2024-04-26T03:58:41.243Z,16.00
2024-04-26T04:01:08.652Z,16.60
2024-04-26T04:03:36.274Z,16.10
2024-04-26T04:06:04.355Z,13.70
2024-04-26T04:08:32.062Z,13.30
2024-04-26T04:10:59.495Z,13.30
2024-04-26T04:13:26.993Z,14.90
2024-04-26T04:15:54.344Z,15.10
2024-04-26T04:18:22.032Z,14.60
2024-04-26T04:20:49.818Z,15.40
2024-04-26T04:23:17.258Z,15.50
2024-04-26T04:25:44.687Z,15.20
2024-04-26T04:28:12.082Z,14.70
2024-04-26T04:30:39.607Z,15.10
2024-04-26T04:33:07.071Z,14.40
2024-04-26T04:35:34.653Z,15.60
2024-04-26T04:38:02.001Z,15.80
2024-04-26T04:40:29.413Z,15.60
2024-04-26T04:42:56.914Z,16.10
2024-04-26T04:45:24.365Z,16.90
2024-04-26T04:47:51.842Z,17.70
2024-04-26T04:50:19.276Z,17.60
2024-04-26T04:52:46.650Z,16.60
2024-04-26T04:55:14.039Z,17.30
2024-04-26T04:57:41.369Z,17.60
2024-04-26T05:00:09.178Z,16.80
2024-04-26T05:02:36.992Z,17.10
2024-04-26T05:05:05.083Z,15.80
2024-04-26T05:07:32.814Z,16.20
2024-04-26T05:10:00.257Z,16.40
2024-04-26T05:12:27.840Z,17.50
2024-04-26T05:14:55.390Z,16.00
2024-04-26T05:17:23.130Z,16.20
2024-04-26T05:19:50.555Z,17.30
2024-04-26T05:22:17.949Z,16.00
2024-04-26T05:24:45.340Z,14.90
2024-04-26T05:27:12.812Z,16.20
2024-04-26T05:29:40.290Z,15.50
2024-04-26T05:32:07.917Z,15.10
2024-04-26T05:34:35.533Z,10.30
2024-04-26T05:37:03.536Z,8.80
2024-04-26T05:39:31.064Z,8.10
2024-04-26T05:41:58.543Z,9.40
2024-04-26T05:44:26.055Z,8.30
2024-04-26T05:46:53.436Z,7.60
2024-04-26T05:49:20.958Z,6.90
2024-04-26T05:51:48.512Z,7.10
2024-04-26T05:54:15.889Z,6.30
2024-04-26T05:56:43.360Z,6.40
2024-04-26T05:59:10.708Z,6.10
2024-04-26T06:01:38.143Z,6.20
2024-04-26T06:04:05.974Z,6.10
2024-04-26T06:06:34.096Z,6.40
2024-04-26T06:09:01.565Z,6.50
2024-04-26T06:11:29.152Z,6.30
2024-04-26T06:13:56.531Z,6.50
2024-04-26T06:16:23.863Z,6.70
2024-04-26T06:18:51.419Z,6.30
2024-04-26T06:21:19.005Z,6.30
2024-04-26T06:23:46.544Z,6.90
2024-04-26T06:26:14.350Z,6.80
2024-04-26T06:28:42.001Z,6.70
2024-04-26T06:31:09.949Z,6.50
2024-04-26T06:33:37.571Z,6.80
2024-04-26T06:36:05.451Z,8.00
2024-04-26T06:38:33.064Z,5.90
2024-04-26T06:41:00.412Z,6.40
2024-04-26T06:43:27.822Z,7.90
2024-04-26T06:45:55.194Z,5.90
2024-04-26T06:48:22.775Z,5.40
2024-04-26T06:50:51.346Z,5.20
2024-04-26T06:53:18.781Z,5.20
2024-04-26T06:55:46.163Z,4.90
2024-04-26T06:58:13.501Z,4.50
2024-04-26T07:00:40.865Z,4.20
2024-04-26T07:03:08.477Z,4.30
2024-04-26T07:05:36.153Z,4.10
2024-04-26T07:08:03.754Z,3.60
2024-04-26T07:10:31.343Z,3.30
2024-04-26T07:12:58.707Z,3.40
2024-04-26T07:15:26.083Z,2.90
2024-04-26T07:17:53.827Z,3.10
2024-04-26T07:20:21.520Z,2.90
2024-04-26T07:22:57.311Z,2.60
2024-04-26T07:25:30.468Z,3.20
2024-04-26T07:27:57.888Z,3.10
2024-04-26T07:30:25.428Z,2.80
2024-04-26T07:32:53.102Z,2.50
2024-04-26T07:35:20.644Z,2.30
2024-04-26T07:37:48.227Z,2.50
2024-04-26T07:40:15.678Z,2.40
2024-04-26T07:42:43.091Z,2.30
2024-04-26T07:45:10.575Z,2.10
2024-04-26T07:47:38.078Z,2.30
2024-04-26T07:50:06.268Z,2.30
2024-04-26T07:52:33.835Z,2.30
2024-04-26T07:55:04.023Z,2.20
2024-04-26T07:57:33.186Z,2.60
2024-04-26T08:00:00.831Z,2.90
2024-04-26T08:02:28.551Z,2.70
2024-04-26T08:04:55.986Z,2.50
2024-04-26T08:07:23.311Z,3.10
2024-04-26T08:09:50.680Z,2.80
2024-04-26T08:12:18.348Z,3.10
2024-04-26T08:14:45.847Z,3.60
2024-04-26T08:17:13.380Z,2.50
2024-04-26T08:19:40.824Z,3.30
2024-04-26T08:22:08.150Z,3.30
2024-04-26T08:24:41.326Z,3.70
2024-04-26T08:27:16.008Z,4.00
2024-04-26T08:29:43.459Z,4.00
2024-04-26T08:32:10.841Z,3.40
2024-04-26T08:34:38.315Z,3.80
2024-04-26T08:37:05.930Z,4.40
2024-04-26T08:39:35.313Z,4.10
2024-04-26T08:42:06.454Z,4.40
2024-04-26T08:44:35.146Z,4.40
2024-04-26T08:47:03.416Z,4.60
2024-04-26T08:49:33.994Z,5.00
2024-04-26T08:52:03.208Z,4.60
2024-04-26T08:54:30.809Z,4.30
2024-04-26T08:56:58.703Z,4.00
2024-04-26T08:59:32.844Z,3.80
2024-04-26T09:02:01.250Z,3.20
2024-04-26T09:04:28.809Z,3.50
2024-04-26T09:06:56.248Z,2.80
2024-04-26T09:09:23.652Z,2.50
2024-04-26T09:11:51.102Z,2.50
2024-04-26T09:14:18.597Z,2.20
2024-04-26T09:16:45.955Z,2.90
2024-04-26T09:19:13.629Z,2.70
2024-04-26T09:21:41.147Z,3.10
2024-04-26T09:24:08.672Z,2.60
2024-04-26T09:26:36.909Z,2.70
2024-04-26T09:29:04.700Z,2.20
2024-04-26T09:31:32.432Z,2.30
2024-04-26T09:34:04.380Z,1.90
2024-04-26T09:36:34.920Z,2.70
2024-04-26T09:39:03.695Z,2.40
2024-04-26T09:41:34.246Z,2.30
2024-04-26T09:47:48.935Z,2.40
2024-04-26T09:50:19.999Z,2.20
2024-04-26T09:52:49.828Z,2.20
2024-04-26T09:55:26.485Z,2.40
2024-04-26T09:57:54.562Z,2.30
2024-04-26T10:00:22.696Z,2.40
2024-04-26T10:02:54.902Z,2.00
2024-04-26T10:05:24.204Z,2.40
2024-04-26T10:07:57.469Z,2.10
2024-04-26T10:10:28.241Z,2.00
2024-04-26T10:13:03.091Z,2.10
2024-04-26T10:15:33.202Z,2.20
2024-04-26T10:18:02.065Z,2.00
2024-04-26T10:20:44.780Z,2.20
2024-04-26T10:23:15.956Z,2.40
2024-04-26T10:25:43.748Z,1.80
2024-04-26T10:28:16.655Z,1.90
2024-04-26T10:30:49.176Z,2.00
2024-04-26T10:33:19.124Z,2.30
2024-04-26T10:35:47.378Z,2.20
2024-04-26T10:38:14.879Z,2.10
2024-04-26T10:40:45.389Z,2.40
2024-04-26T10:43:12.849Z,2.10
2024-04-26T10:45:40.276Z,2.20
2024-04-26T10:48:07.998Z,2.20
2024-04-26T10:50:35.607Z,2.60
2024-04-26T10:53:08.949Z,2.50
2024-04-26T10:55:36.391Z,2.10
2024-04-26T10:58:04.237Z,2.20
2024-04-26T11:00:39.478Z,2.20
2024-04-26T11:03:11.105Z,2.10
2024-04-26T11:05:47.165Z,2.50
2024-04-26T11:08:25.382Z,2.00
2024-04-26T11:10:53.197Z,2.40
2024-04-26T11:13:22.066Z,2.20
2024-04-26T11:15:50.397Z,2.40
2024-04-26T11:18:18.153Z,2.20
2024-04-26T11:20:45.981Z,2.00
2024-04-26T11:23:13.607Z,2.00
2024-04-26T11:25:41.152Z,2.10
2024-04-26T11:28:08.663Z,2.00
2024-04-26T11:30:36.357Z,2.00
2024-04-26T11:33:04.882Z,2.30
2024-04-26T11:35:33.795Z,1.80
2024-04-26T11:38:01.441Z,1.90
2024-04-26T11:40:29.412Z,2.10
2024-04-26T11:42:56.985Z,2.40
2024-04-26T11:45:24.720Z,2.10
2024-04-26T11:47:52.383Z,2.20
2024-04-26T11:50:20.142Z,2.10
2024-04-26T11:52:47.688Z,2.40
2024-04-26T11:55:15.252Z,1.60
2024-04-26T11:57:42.759Z,1.90
2024-04-26T12:00:10.620Z,2.10
2024-04-26T12:02:38.626Z,2.00
2024-04-26T12:05:07.490Z,2.20
2024-04-26T12:10:03.193Z,2.60
2024-04-26T12:12:30.936Z,2.00
2024-04-26T12:14:58.876Z,2.30
2024-04-26T12:17:26.576Z,2.20
2024-04-26T12:19:54.319Z,2.30
2024-04-26T12:22:21.692Z,1.70
2024-04-26T12:24:49.073Z,1.80
2024-04-26T12:27:16.494Z,2.00
2024-04-26T12:29:46.675Z,1.80
2024-04-26T12:32:14.174Z,1.70
2024-04-26T12:34:42.185Z,1.90
2024-04-26T12:37:09.716Z,2.10
2024-04-26T12:39:37.135Z,2.40
2024-04-26T12:42:04.654Z,2.70
2024-04-26T12:44:32.236Z,2.50
2024-04-26T12:46:59.692Z,1.90
2024-04-26T12:49:27.132Z,1.90
2024-04-26T12:51:54.549Z,2.00
2024-04-26T12:54:21.995Z,2.00
2024-04-26T12:56:49.499Z,1.90
2024-04-26T12:59:16.998Z,2.30
2024-04-26T13:01:44.739Z,2.30
2024-04-26T13:04:13.109Z,2.10
2024-04-26T13:06:41.052Z,1.90
2024-04-26T13:09:09.140Z,1.80
2024-04-26T13:11:37.898Z,1.70
2024-04-26T13:14:06.035Z,1.60
2024-04-26T13:16:34.511Z,1.70
2024-04-26T13:19:02.488Z,2.00
2024-04-26T13:21:30.168Z,1.80
2024-04-26T13:23:57.673Z,1.50
2024-04-26T13:26:26.667Z,2.10
2024-04-26T13:28:54.160Z,2.20
2024-04-26T13:31:21.536Z,2.20
2024-04-26T13:33:49.092Z,2.10
2024-04-26T13:36:16.705Z,2.00
2024-04-26T13:38:44.219Z,1.80
2024-04-26T13:41:16.063Z,2.10
2024-04-26T13:43:45.960Z,1.80
2024-04-26T13:46:18.127Z,1.90
2024-04-26T13:48:51.004Z,2.00
2024-04-26T13:51:20.123Z,1.90
2024-04-26T13:53:50.419Z,1.90
2024-04-26T13:56:19.725Z,1.90
2024-04-26T13:58:47.108Z,1.70
2024-04-26T14:01:19.034Z,1.50
2024-04-26T14:03:48.062Z,1.70
2024-04-26T14:06:19.029Z,2.00
2024-04-26T14:08:47.928Z,1.90
2024-04-26T14:11:17.618Z,1.80
2024-04-26T14:13:47.634Z,1.90
2024-04-26T14:16:18.829Z,1.80
2024-04-26T14:18:50.190Z,1.60
2024-04-26T14:21:19.339Z,1.80
2024-04-26T14:23:47.906Z,1.30
2024-04-26T14:26:18.305Z,1.80
2024-04-26T14:28:45.865Z,1.50
2024-04-26T14:31:13.449Z,1.60
2024-04-26T14:33:50.333Z,1.70
2024-04-26T14:36:17.827Z,1.60
2024-04-26T14:38:45.201Z,1.50
2024-04-26T14:41:12.584Z,2.00
2024-04-26T14:43:40.622Z,1.50
2024-04-26T14:46:08.622Z,1.60
2024-04-26T14:48:36.014Z,1.60
2024-04-26T14:51:05.034Z,1.60
2024-04-26T14:53:32.581Z,1.80
2024-04-26T14:56:00.105Z,2.30
2024-04-26T14:58:27.614Z,1.90
2024-04-26T15:00:54.972Z,1.70
2024-04-26T15:03:22.708Z,2.20
2024-04-26T15:05:51.989Z,1.70
2024-04-26T15:10:49.095Z,1.50
2024-04-26T15:13:17.309Z,1.50
2024-04-26T15:15:45.620Z,1.70
2024-04-26T15:18:13.628Z,1.50
2024-04-26T15:20:41.176Z,1.60
2024-04-26T15:23:08.704Z,1.60
2024-04-26T15:25:36.164Z,1.70
2024-04-26T15:28:05.106Z,1.70
2024-04-26T15:30:33.064Z,1.50
2024-04-26T15:33:01.994Z,1.40
2024-04-26T15:35:30.188Z,1.60
2024-04-26T15:37:58.491Z,1.20
2024-04-26T15:40:26.994Z,1.20
2024-04-26T15:45:23.515Z,1.30
2024-04-26T15:47:51.190Z,1.20
2024-04-26T15:50:28.222Z,1.20
2024-04-26T15:52:55.862Z,1.20
2024-04-26T15:55:23.614Z,1.30
2024-04-26T15:57:51.469Z,1.50
2024-04-26T16:00:19.355Z,1.50
2024-04-26T16:02:47.039Z,1.20
2024-04-26T16:05:15.003Z,1.20
2024-04-26T16:07:42.604Z,1.30
2024-04-26T16:10:10.171Z,1.40
2024-04-26T16:12:37.499Z,1.60
2024-04-26T16:15:05.179Z,1.40
2024-04-26T16:17:32.894Z,1.60
2024-04-26T16:20:00.703Z,1.40
2024-04-26T16:22:28.411Z,1.40
2024-04-26T16:24:56.009Z,1.60
2024-04-26T16:27:23.574Z,1.50
2024-04-26T16:29:51.231Z,1.70
2024-04-26T16:32:19.323Z,1.70
2024-04-26T16:34:47.123Z,1.50
2024-04-26T16:37:14.911Z,1.40
2024-04-26T16:39:42.325Z,1.70
2024-04-26T16:42:09.689Z,1.70
2024-04-26T16:44:37.089Z,1.70
2024-04-26T16:47:04.798Z,1.70
2024-04-26T16:49:32.347Z,1.90
2024-04-26T16:51:59.700Z,1.90
2024-04-26T16:54:27.012Z,2.10
2024-04-26T16:56:54.450Z,2.00
2024-04-26T16:59:21.808Z,2.00
2024-04-26T17:01:49.533Z,2.60
2024-04-26T17:04:16.886Z,2.80
2024-04-26T17:06:44.343Z,2.50
2024-04-26T17:09:12.364Z,2.40
2024-04-26T17:11:43.934Z,3.00
2024-04-26T17:14:12.023Z,3.20
2024-04-26T17:16:39.843Z,2.70
2024-04-26T17:19:07.347Z,2.60
2024-04-26T17:21:39.628Z,2.80
2024-04-26T17:24:07.177Z,2.90
2024-04-26T17:26:34.543Z,3.00
2024-04-26T17:29:02.036Z,4.50
2024-04-26T17:31:36.222Z,5.10
2024-04-26T17:34:03.665Z,5.50
2024-04-26T17:36:34.572Z,6.40
2024-04-26T17:39:02.159Z,4.20
2024-04-26T17:41:29.532Z,4.10
2024-04-26T17:43:56.970Z,4.50
2024-04-26T17:46:24.549Z,4.30
2024-04-26T17:48:52.102Z,4.50
2024-04-26T17:51:19.460Z,4.40
2024-04-26T17:53:46.847Z,4.20
2024-04-26T17:56:14.224Z,4.00
2024-04-26T17:58:41.634Z,4.40
2024-04-26T18:01:09.133Z,5.90
2024-04-26T18:03:36.655Z,5.00
2024-04-26T18:06:04.394Z,4.80
2024-04-26T18:08:31.925Z,4.60
2024-04-26T18:10:59.461Z,4.30
2024-04-26T18:13:26.997Z,5.10
2024-04-26T18:15:54.406Z,4.50
2024-04-26T18:18:21.867Z,5.40
2024-04-26T18:20:49.285Z,7.50
2024-04-26T18:23:16.679Z,7.70
2024-04-26T18:25:44.324Z,7.10
2024-04-26T18:28:11.684Z,5.60
2024-04-26T18:30:39.009Z,4.80
2024-04-26T18:33:07.864Z,7.80
2024-04-26T18:35:36.637Z,8.00
2024-04-26T18:38:04.608Z,7.10
2024-04-26T18:40:32.107Z,5.70
2024-04-26T18:42:59.486Z,6.30
2024-04-26T18:45:26.943Z,7.30
2024-04-26T18:47:54.373Z,6.90
2024-04-26T18:50:22.358Z,6.50
2024-04-26T18:52:49.720Z,6.20
2024-04-26T18:55:17.086Z,6.70
2024-04-26T18:57:47.106Z,5.00
2024-04-26T19:00:14.629Z,4.80
2024-04-26T19:02:41.994Z,4.50
2024-04-26T19:05:09.400Z,4.60
2024-04-26T19:07:36.831Z,4.60
2024-04-26T19:10:04.513Z,3.90
2024-04-26T19:12:32.089Z,5.00
2024-04-26T19:14:59.425Z,5.40
2024-04-26T19:17:26.952Z,5.20
2024-04-26T19:19:54.376Z,6.40
2024-04-26T19:22:21.861Z,5.50
2024-04-26T19:24:49.190Z,6.20
2024-04-26T19:27:16.537Z,5.10
2024-04-26T19:29:43.931Z,5.00
2024-04-26T19:32:11.399Z,5.40
2024-04-26T19:34:38.789Z,5.20
2024-04-26T19:37:06.182Z,5.40
2024-04-26T19:39:33.518Z,6.80
2024-04-26T19:42:00.888Z,6.80
2024-04-26T19:44:28.264Z,6.30
2024-04-26T19:46:55.716Z,6.80
2024-04-26T19:49:29.984Z,6.50
2024-04-26T19:52:00.405Z,7.70
2024-04-26T19:54:27.743Z,6.70
2024-04-26T19:56:55.191Z,7.10
2024-04-26T19:59:22.555Z,7.00
2024-04-26T20:01:49.934Z,6.30
2024-04-26T20:04:17.363Z,7.10
2024-04-26T20:06:46.441Z,7.30
2024-04-26T20:09:13.908Z,7.20
2024-04-26T20:11:45.358Z,7.00
2024-04-26T20:14:12.915Z,7.90
2024-04-26T20:16:40.457Z,7.70
2024-04-26T20:19:07.815Z,8.20
2024-04-26T20:21:35.199Z,7.30
2024-04-26T20:24:03.786Z,6.90
2024-04-26T20:26:31.281Z,8.20
2024-04-26T20:28:58.822Z,7.70
2024-04-26T20:31:29.688Z,8.50
2024-04-26T20:33:57.063Z,8.30
2024-04-26T20:36:24.546Z,9.80
2024-04-26T20:38:52.009Z,8.50
2024-04-26T20:41:19.381Z,10.00
2024-04-26T20:43:46.848Z,10.00
2024-04-26T20:46:14.281Z,9.70
2024-04-26T20:48:42.331Z,9.40
2024-04-26T20:51:10.897Z,10.00
2024-04-26T20:53:41.665Z,9.60
2024-04-26T20:56:14.991Z,9.10
2024-04-26T20:58:48.657Z,9.30
2024-04-26T21:01:16.083Z,9.90
2024-04-26T21:03:44.440Z,9.20
2024-04-26T21:06:12.165Z,8.50
2024-04-26T21:08:40.027Z,10.00
2024-04-26T21:11:07.433Z,9.80
2024-04-26T21:13:34.962Z,9.60
2024-04-26T21:16:02.337Z,9.90
2024-04-26T21:18:29.791Z,10.00
2024-04-26T21:20:57.215Z,10.10
2024-04-26T21:23:24.534Z,11.40
2024-04-26T21:25:51.888Z,11.20
2024-04-26T21:28:19.403Z,12.50
2024-04-26T21:30:46.738Z,11.50
2024-04-26T21:33:14.406Z,12.20
2024-04-26T21:35:41.902Z,11.40
2024-04-26T21:38:09.284Z,10.50
2024-04-26T21:40:36.689Z,9.70
2024-04-26T21:43:04.229Z,10.10
2024-04-26T21:45:31.725Z,9.70
2024-04-26T21:47:59.103Z,9.50
2024-04-26T21:50:26.482Z,9.20
2024-04-26T21:52:53.874Z,8.50
2024-04-26T21:55:21.220Z,7.60
2024-04-26T21:57:48.725Z,7.80
2024-04-26T22:00:16.572Z,8.00
2024-04-26T22:02:43.892Z,7.60
2024-04-26T22:05:11.306Z,8.40
2024-04-26T22:07:38.768Z,8.80
2024-04-26T22:10:06.431Z,8.80
2024-04-26T22:12:33.984Z,8.00
2024-04-26T22:15:01.451Z,8.50
2024-04-26T22:17:29.042Z,7.60
2024-04-26T22:19:56.505Z,9.40
2024-04-26T22:22:24.000Z,8.50
2024-04-26T22:24:51.401Z,7.20
2024-04-26T22:27:18.815Z,8.10
2024-04-26T22:29:50.884Z,7.00
2024-04-26T22:32:18.338Z,7.50
2024-04-26T22:34:45.710Z,7.50
2024-04-26T22:37:13.268Z,7.70
2024-04-26T22:39:40.612Z,7.10
2024-04-26T22:42:08.179Z,7.40
2024-04-26T22:44:35.524Z,6.90
2024-04-26T22:47:03.130Z,7.80
2024-04-26T22:49:30.623Z,7.50
2024-04-26T22:51:58.032Z,7.60
2024-04-26T22:54:25.381Z,8.00
2024-04-26T22:56:52.717Z,7.70
2024-04-26T22:59:20.299Z,8.30
2024-04-26T23:01:47.674Z,8.50
2024-04-26T23:04:15.117Z,7.50
2024-04-26T23:06:42.651Z,7.50
2024-04-26T23:09:10.110Z,7.40
2024-04-26T23:11:37.962Z,6.50
2024-04-26T23:14:05.542Z,6.80
2024-04-26T23:16:33.649Z,6.90
2024-04-26T23:19:01.437Z,7.20
2024-04-26T23:21:29.033Z,6.80
2024-04-26T23:23:56.361Z,7.00
2024-04-26T23:26:23.868Z,6.90
2024-04-26T23:28:54.836Z,6.80
2024-04-26T23:31:22.393Z,7.50
2024-04-26T23:33:49.928Z,8.60
2024-04-26T23:36:17.328Z,7.60
2024-04-26T23:38:44.677Z,7.10
2024-04-26T23:41:12.085Z,7.00
2024-04-26T23:43:39.439Z,9.20
2024-04-26T23:46:06.869Z,11.80
2024-04-26T23:48:34.234Z,12.70
2024-04-26T23:51:01.636Z,12.70
2024-04-26T23:53:29.084Z,11.70
2024-04-26T23:55:56.794Z,8.00
2024-04-26T23:58:24.189Z,7.90
